createdAt,value
2018-02-18T00:00:35.474Z,48.33
2018-02-18T00:03:04.555Z,51.83
2018-02-18T00:05:32.708Z,45.97
2018-02-18T00:08:00.873Z,39.43
2018-02-18T00:10:28.931Z,38.33
2018-02-18T00:12:57.007Z,38.60
2018-02-18T00:15:25.090Z,39.47
2018-02-18T00:17:53.138Z,44.73
2018-02-18T00:20:22.091Z,40.73
2018-02-18T00:22:50.320Z,42.93
2018-02-18T00:25:19.197Z,38.97
2018-02-18T00:27:47.562Z,38.33
2018-02-18T00:30:15.746Z,42.53
2018-02-18T00:32:43.836Z,48.20
2018-02-18T00:35:11.887Z,52.93
2018-02-18T00:37:40.183Z,41.73
2018-02-18T00:40:08.239Z,44.63
2018-02-18T00:42:37.199Z,40.60
2018-02-18T00:45:05.482Z,44.37
2018-02-18T00:47:33.666Z,50.00
2018-02-18T00:50:01.732Z,44.73
2018-02-18T00:52:29.915Z,43.80
2018-02-18T00:54:58.753Z,44.47
2018-02-18T00:57:27.936Z,46.00
2018-02-18T00:59:56.151Z,50.10
2018-02-18T01:02:24.220Z,41.70
2018-02-18T01:04:53.065Z,42.33
2018-02-18T01:07:21.173Z,44.57
2018-02-18T01:09:49.365Z,37.43
2018-02-18T01:12:17.497Z,38.57
2018-02-18T01:14:45.658Z,42.87
2018-02-18T01:17:13.799Z,39.63
2018-02-18T01:19:41.852Z,38.77
2018-02-18T01:22:09.930Z,39.70
2018-02-18T01:24:38.068Z,36.83
2018-02-18T01:27:06.102Z,39.63
2018-02-18T01:29:34.182Z,39.97
2018-02-18T01:32:02.234Z,38.83
2018-02-18T01:34:30.292Z,40.13
2018-02-18T01:36:58.348Z,36.63
2018-02-18T01:39:26.408Z,39.23
2018-02-18T01:41:54.591Z,38.83
2018-02-18T01:44:22.607Z,38.10
2018-02-18T01:46:51.475Z,37.30
2018-02-18T01:49:19.541Z,38.93
2018-02-18T01:51:47.616Z,38.50
2018-02-18T01:54:15.671Z,38.53
2018-02-18T01:56:44.488Z,42.37
2018-02-18T01:59:12.616Z,41.87
2018-02-18T02:01:40.668Z,39.63
2018-02-18T02:04:08.724Z,38.17
2018-02-18T02:06:37.534Z,39.07
2018-02-18T02:09:05.618Z,41.30
2018-02-18T02:11:34.426Z,39.27
2018-02-18T02:14:02.504Z,36.93
2018-02-18T02:16:30.567Z,34.07
2018-02-18T02:18:59.379Z,34.90
2018-02-18T02:21:28.231Z,38.20
2018-02-18T02:23:56.283Z,38.60
2018-02-18T02:26:24.331Z,40.30
2018-02-18T02:28:53.152Z,38.07
2018-02-18T02:31:21.241Z,37.93
2018-02-18T02:33:49.294Z,33.30
2018-02-18T02:36:17.344Z,36.13
2018-02-18T02:38:45.439Z,34.20
2018-02-18T02:41:13.494Z,36.70
2018-02-18T02:43:41.569Z,37.07
2018-02-18T02:46:09.642Z,36.20
2018-02-18T02:48:37.752Z,38.37
2018-02-18T02:51:05.824Z,38.53
2018-02-18T02:53:33.905Z,39.67
2018-02-18T02:56:01.957Z,36.80
2018-02-18T02:58:30.771Z,37.87
2018-02-18T03:00:58.857Z,38.60
2018-02-18T03:03:26.917Z,37.50
2018-02-18T03:05:54.982Z,37.47
2018-02-18T03:08:23.185Z,37.80
2018-02-18T03:10:51.226Z,38.93
2018-02-18T03:13:19.333Z,38.83
2018-02-18T03:15:47.367Z,37.80
2018-02-18T03:18:15.420Z,35.70
2018-02-18T03:20:43.520Z,38.53
2018-02-18T03:23:11.608Z,37.50
2018-02-18T03:25:39.666Z,38.97
2018-02-18T03:28:07.728Z,40.50
2018-02-18T03:30:35.860Z,37.00
2018-02-18T03:33:04.730Z,42.77
2018-02-18T03:35:32.781Z,39.10
2018-02-18T03:38:00.841Z,42.83
2018-02-18T03:40:28.900Z,42.87
2018-02-18T03:42:57.723Z,38.93
2018-02-18T03:45:25.884Z,41.60
2018-02-18T03:47:54.729Z,38.53
2018-02-18T03:50:22.862Z,36.30
2018-02-18T03:52:51.816Z,38.60
2018-02-18T03:55:19.892Z,36.90
2018-02-18T03:57:47.957Z,34.67
2018-02-18T04:00:16.047Z,35.87
2018-02-18T04:02:44.092Z,35.97
2018-02-18T04:05:12.157Z,35.67
2018-02-18T04:07:40.204Z,33.60
2018-02-18T04:10:08.270Z,32.73
2018-02-18T04:12:36.331Z,34.37
2018-02-18T04:15:05.280Z,33.70
2018-02-18T04:17:33.374Z,34.00
2018-02-18T04:20:01.429Z,32.73
2018-02-18T04:22:29.583Z,31.40
2018-02-18T04:24:57.645Z,32.13
2018-02-18T04:27:25.780Z,31.70
2018-02-18T04:29:53.865Z,31.87
2018-02-18T04:32:21.914Z,33.03
2018-02-18T04:34:50.151Z,31.23
2018-02-18T04:37:18.960Z,33.37
2018-02-18T04:39:47.002Z,35.93
2018-02-18T04:42:15.903Z,38.40
2018-02-18T04:44:43.944Z,37.93
2018-02-18T04:47:12.043Z,39.87
2018-02-18T04:49:40.102Z,39.30
2018-02-18T04:52:08.205Z,39.13
2018-02-18T04:54:36.240Z,38.67
2018-02-18T04:57:05.046Z,39.13
2018-02-18T04:59:33.126Z,38.87
2018-02-18T05:02:02.189Z,38.07
2018-02-18T05:04:30.235Z,39.60
2018-02-18T05:06:58.963Z,40.37
2018-02-18T05:09:27.028Z,39.60
2018-02-18T05:11:55.106Z,40.03
2018-02-18T05:14:23.271Z,38.83
2018-02-18T05:16:51.297Z,38.07
2018-02-18T05:19:19.379Z,39.10
2018-02-18T05:21:47.432Z,39.57
2018-02-18T05:24:15.592Z,38.87
2018-02-18T05:26:44.508Z,39.30
2018-02-18T05:29:12.582Z,37.93
2018-02-18T05:31:40.712Z,36.43
2018-02-18T05:34:08.750Z,33.47
2018-02-18T05:36:36.836Z,29.70
2018-02-18T05:39:04.891Z,26.13
2018-02-18T05:41:33.726Z,26.57
2018-02-18T05:44:01.855Z,27.07
2018-02-18T05:46:29.911Z,30.40
2018-02-18T05:48:57.974Z,32.27
2018-02-18T05:51:26.028Z,34.77
2018-02-18T05:53:54.084Z,34.37
2018-02-18T05:56:22.170Z,33.73
2018-02-18T05:58:50.239Z,34.50
2018-02-18T06:01:18.396Z,31.77
2018-02-18T06:03:46.455Z,33.93
2018-02-18T06:06:16.437Z,33.17
2018-02-18T06:08:44.485Z,32.60
2018-02-18T06:11:12.565Z,34.27
2018-02-18T06:13:40.633Z,34.23
2018-02-18T06:16:09.476Z,34.37
2018-02-18T06:18:37.534Z,32.13
2018-02-18T06:21:05.645Z,35.67
2018-02-18T06:23:33.688Z,35.03
2018-02-18T06:26:02.515Z,36.13
2018-02-18T06:28:30.571Z,35.80
2018-02-18T06:30:59.413Z,34.47
2018-02-18T06:33:27.473Z,33.90
2018-02-18T06:35:55.545Z,33.60
2018-02-18T06:38:24.362Z,32.80
2018-02-18T06:40:52.438Z,32.37
2018-02-18T06:43:20.504Z,34.10
2018-02-18T06:45:49.332Z,35.73
2018-02-18T06:48:17.378Z,36.03
2018-02-18T06:50:45.453Z,34.77
2018-02-18T06:53:13.519Z,33.03
2018-02-18T06:55:41.587Z,40.13
2018-02-18T06:58:09.636Z,37.63
2018-02-18T07:00:37.715Z,39.23
2018-02-18T07:03:06.623Z,38.57
2018-02-18T07:05:35.435Z,38.27
2018-02-18T07:08:03.489Z,37.20
2018-02-18T07:10:32.311Z,31.33
2018-02-18T07:13:00.359Z,38.83
2018-02-18T07:15:28.425Z,37.23
2018-02-18T07:17:56.479Z,37.67
2018-02-18T07:20:24.543Z,41.77
2018-02-18T07:22:53.373Z,39.80
2018-02-18T07:25:21.431Z,35.63
2018-02-18T07:27:49.492Z,34.10
2018-02-18T07:30:18.307Z,34.80
2018-02-18T07:32:47.132Z,33.23
2018-02-18T07:35:15.200Z,32.67
2018-02-18T07:37:43.245Z,34.40
2018-02-18T07:40:11.399Z,41.07
2018-02-18T07:42:39.458Z,33.97
2018-02-18T07:45:07.512Z,30.17
2018-02-18T07:47:36.348Z,30.97
2018-02-18T07:50:04.422Z,32.97
2018-02-18T07:52:32.492Z,38.20
2018-02-18T07:55:00.547Z,46.83
2018-02-18T07:57:28.595Z,43.63
2018-02-18T07:59:56.645Z,43.37
2018-02-18T08:02:25.459Z,38.23
2018-02-18T08:04:53.512Z,47.33
2018-02-18T08:07:22.362Z,43.27
2018-02-18T08:09:50.433Z,42.03
2018-02-18T08:12:18.508Z,33.57
2018-02-18T08:14:46.557Z,33.63
2018-02-18T08:17:14.616Z,36.47
2018-02-18T08:19:42.686Z,49.37
2018-02-18T08:22:10.761Z,37.77
2018-02-18T08:24:38.802Z,33.33
2018-02-18T08:27:07.632Z,33.57
2018-02-18T08:29:35.691Z,32.00
2018-02-18T08:32:04.517Z,33.13
2018-02-18T08:34:32.551Z,34.20
2018-02-18T08:37:00.628Z,38.03
2018-02-18T08:39:28.683Z,35.20
2018-02-18T08:41:56.728Z,33.33
2018-02-18T08:44:24.804Z,32.03
2018-02-18T08:46:53.615Z,32.03
2018-02-18T08:49:21.693Z,33.47
2018-02-18T08:51:50.505Z,34.67
2018-02-18T08:54:18.736Z,32.53
2018-02-18T08:56:46.784Z,29.70
2018-02-18T08:59:14.866Z,30.10
2018-02-18T09:01:42.906Z,29.30
2018-02-18T09:04:10.968Z,27.63
2018-02-18T09:06:39.028Z,29.03
2018-02-18T09:09:07.093Z,30.13
2018-02-18T09:11:35.152Z,27.00
2018-02-18T09:14:03.972Z,28.97
2018-02-18T09:16:32.014Z,29.93
2018-02-18T09:19:00.077Z,30.47
2018-02-18T09:21:28.140Z,29.50
2018-02-18T09:23:56.203Z,31.93
2018-02-18T09:26:24.259Z,28.63
2018-02-18T09:28:52.326Z,32.40
2018-02-18T09:31:20.358Z,32.77
2018-02-18T09:33:48.421Z,30.43
2018-02-18T09:36:17.249Z,33.47
2018-02-18T09:38:45.321Z,35.63
2018-02-18T09:41:13.433Z,31.03
2018-02-18T09:43:41.489Z,31.53
2018-02-18T09:46:09.573Z,31.33
2018-02-18T09:48:37.643Z,33.63
2018-02-18T09:51:06.459Z,35.90
2018-02-18T09:53:34.511Z,31.33
2018-02-18T09:56:02.555Z,32.63
2018-02-18T09:58:30.625Z,33.17
2018-02-18T10:00:58.687Z,34.27
2018-02-18T10:03:26.765Z,31.07
2018-02-18T10:05:54.796Z,30.30
2018-02-18T10:08:22.853Z,31.27
2018-02-18T10:10:50.912Z,33.23
2018-02-18T10:13:19.719Z,35.60
2018-02-18T10:15:47.808Z,39.03
2018-02-18T10:18:15.850Z,38.63
2018-02-18T10:20:43.902Z,36.93
2018-02-18T10:23:11.967Z,34.07
2018-02-18T10:25:40.047Z,34.63
2018-02-18T10:28:08.282Z,31.00
2018-02-18T10:30:36.349Z,32.60
2018-02-18T10:33:04.464Z,32.13
2018-02-18T10:35:32.539Z,34.90
2018-02-18T10:38:00.597Z,35.23
2018-02-18T10:40:28.668Z,34.83
2018-02-18T10:42:56.723Z,37.43
2018-02-18T10:45:24.779Z,38.73
2018-02-18T10:47:52.826Z,37.90
2018-02-18T10:50:20.900Z,34.33
2018-02-18T10:52:48.980Z,32.00
2018-02-18T10:55:17.026Z,33.77
2018-02-18T10:57:45.863Z,36.47
2018-02-18T11:00:13.908Z,44.43
2018-02-18T11:02:42.719Z,37.00
2018-02-18T11:05:11.564Z,37.27
2018-02-18T11:07:39.617Z,35.30
2018-02-18T11:10:07.710Z,36.67
2018-02-18T11:12:35.989Z,38.63
2018-02-18T11:15:04.042Z,39.00
2018-02-18T11:17:32.126Z,34.10
2018-02-18T11:20:00.970Z,32.30
2018-02-18T11:22:29.049Z,34.63
2018-02-18T11:24:57.116Z,33.43
2018-02-18T11:27:25.412Z,30.53
2018-02-18T11:29:53.496Z,33.27
2018-02-18T11:32:21.526Z,31.40
2018-02-18T11:34:49.592Z,32.20
2018-02-18T11:37:17.659Z,30.57
2018-02-18T11:39:45.720Z,33.47
2018-02-18T11:42:13.806Z,32.90
2018-02-18T11:44:42.617Z,34.90
2018-02-18T11:47:10.687Z,31.97
2018-02-18T11:49:39.499Z,32.83
2018-02-18T11:52:07.616Z,32.83
2018-02-18T11:54:35.665Z,34.77
2018-02-18T11:57:04.575Z,30.70
2018-02-18T11:59:32.669Z,31.80
2018-02-18T12:02:00.727Z,31.93
2018-02-18T12:04:28.778Z,32.40
2018-02-18T12:06:57.510Z,29.70
2018-02-18T12:09:25.572Z,30.43
2018-02-18T12:11:54.455Z,31.83
2018-02-18T12:14:22.502Z,31.47
2018-02-18T12:16:50.563Z,33.20
2018-02-18T12:19:18.646Z,31.17
2018-02-18T12:21:46.715Z,32.90
2018-02-18T12:24:15.543Z,33.73
2018-02-18T12:26:43.617Z,32.47
2018-02-18T12:29:11.662Z,32.80
2018-02-18T12:31:39.876Z,30.60
2018-02-18T12:34:08.703Z,33.93
2018-02-18T12:36:36.845Z,32.87
2018-02-18T12:39:05.658Z,32.77
2018-02-18T12:41:34.478Z,32.80
2018-02-18T12:44:02.553Z,32.00
2018-02-18T12:46:30.675Z,31.00
2018-02-18T12:48:58.702Z,31.93
2018-02-18T12:51:27.521Z,34.47
2018-02-18T12:53:55.612Z,32.80
2018-02-18T12:56:23.651Z,32.87
2018-02-18T12:58:51.710Z,31.50
2018-02-18T13:01:19.751Z,33.83
2018-02-18T13:03:47.815Z,34.77
2018-02-18T13:06:16.637Z,32.87
2018-02-18T13:08:44.682Z,32.03
2018-02-18T13:11:12.757Z,33.77
2018-02-18T13:13:40.839Z,34.23
2018-02-18T13:16:08.920Z,37.00
2018-02-18T13:18:36.992Z,39.63
2018-02-18T13:21:05.068Z,36.67
2018-02-18T13:23:33.110Z,29.07
2018-02-18T13:26:01.960Z,26.50
2018-02-18T13:28:30.017Z,24.47
2018-02-18T13:30:58.116Z,21.57
2018-02-18T13:33:26.942Z,27.07
2018-02-18T13:35:55.004Z,31.17
2018-02-18T13:38:23.858Z,31.73
2018-02-18T13:40:52.740Z,33.53
2018-02-18T13:43:20.847Z,33.07
2018-02-18T13:45:49.706Z,30.13
2018-02-18T13:48:17.757Z,34.37
2018-02-18T13:50:45.824Z,42.37
2018-02-18T13:53:14.642Z,42.80
2018-02-18T13:55:42.691Z,53.27
2018-02-18T13:58:11.527Z,56.53
2018-02-18T14:00:39.704Z,42.97
2018-02-18T14:03:07.760Z,39.33
2018-02-18T14:05:35.806Z,37.73
2018-02-18T14:08:04.113Z,34.67
2018-02-18T14:10:32.341Z,36.87
2018-02-18T14:13:01.207Z,52.97
2018-02-18T14:15:29.453Z,38.10
2018-02-18T14:17:57.524Z,42.30
2018-02-18T14:20:25.638Z,39.50
2018-02-18T14:22:53.687Z,38.53
2018-02-18T14:25:21.744Z,37.97
2018-02-18T14:27:50.582Z,40.87
2018-02-18T14:30:18.652Z,56.17
2018-02-18T14:32:46.695Z,50.93
2018-02-18T14:35:14.765Z,36.73
2018-02-18T14:37:42.835Z,35.07
2018-02-18T14:40:10.891Z,38.00
2018-02-18T14:42:50.840Z,39.77
2018-02-18T14:45:31.610Z,38.03
2018-02-18T14:48:12.306Z,37.70
2018-02-18T14:53:56.143Z,36.47
2018-02-18T14:59:24.483Z,41.27
2018-02-18T15:01:52.557Z,38.70
2018-02-18T15:04:20.615Z,39.97
2018-02-18T15:06:48.701Z,34.17
2018-02-18T15:09:16.757Z,27.57
2018-02-18T15:11:45.601Z,25.27
2018-02-18T15:14:13.745Z,26.73
2018-02-18T15:16:42.564Z,25.10
2018-02-18T15:19:10.620Z,25.67
2018-02-18T15:21:39.427Z,26.17
2018-02-18T15:24:07.488Z,24.53
2018-02-18T15:26:35.540Z,24.17
2018-02-18T15:29:03.656Z,22.03
2018-02-18T15:31:31.682Z,24.07
2018-02-18T15:33:59.752Z,24.67
2018-02-18T15:36:28.398Z,23.67
2018-02-18T15:38:56.512Z,21.43
2018-02-18T15:41:25.337Z,22.97
2018-02-18T15:43:54.479Z,23.13
2018-02-18T15:46:23.874Z,22.77
2018-02-18T15:48:52.114Z,21.87
2018-02-18T15:51:20.167Z,22.53
2018-02-18T15:53:48.215Z,23.20
2018-02-18T15:56:16.288Z,23.17
2018-02-18T15:58:45.104Z,23.80
2018-02-18T16:01:13.194Z,23.60
2018-02-18T16:03:41.252Z,21.20
2018-02-18T16:06:10.140Z,23.73
2018-02-18T16:08:38.957Z,28.87
2018-02-18T16:11:07.015Z,23.60
2018-02-18T16:13:35.071Z,26.27
2018-02-18T16:16:03.147Z,21.17
2018-02-18T16:18:31.207Z,20.63
2018-02-18T16:20:59.237Z,21.93
2018-02-18T16:23:27.305Z,21.93
2018-02-18T16:25:55.347Z,22.87
2018-02-18T16:28:23.414Z,21.50
2018-02-18T16:30:52.291Z,24.33
2018-02-18T16:33:20.329Z,24.03
2018-02-18T16:35:48.375Z,24.67
2018-02-18T16:38:17.193Z,23.70
2018-02-18T16:40:45.259Z,24.37
2018-02-18T16:43:14.145Z,25.30
2018-02-18T16:45:42.197Z,24.53
2018-02-18T16:48:10.244Z,56.30
2018-02-18T16:50:38.359Z,26.33
2018-02-18T16:53:06.456Z,55.83
2018-02-18T16:55:34.539Z,30.00
2018-02-18T16:58:02.626Z,29.57
2018-02-18T17:00:31.742Z,38.97
2018-02-18T17:03:00.856Z,33.40
2018-02-18T17:05:28.998Z,25.47
2018-02-18T17:07:57.038Z,25.63
2018-02-18T17:10:25.861Z,28.97
2018-02-18T17:12:53.909Z,33.33
2018-02-18T17:15:21.982Z,29.83
2018-02-18T17:17:50.032Z,23.87
2018-02-18T17:20:18.106Z,27.10
2018-02-18T17:22:46.259Z,28.07
2018-02-18T17:25:15.117Z,26.67
2018-02-18T17:27:43.195Z,26.83
2018-02-18T17:30:11.247Z,27.87
2018-02-18T17:32:39.332Z,27.47
2018-02-18T17:35:07.380Z,61.57
2018-02-18T17:37:35.531Z,52.40
2018-02-18T17:40:04.594Z,37.27
2018-02-18T17:42:33.420Z,27.47
2018-02-18T17:45:01.489Z,29.50
2018-02-18T17:47:31.298Z,31.60
2018-02-18T17:50:00.220Z,35.03
2018-02-18T17:52:28.266Z,25.43
2018-02-18T17:54:56.342Z,28.73
2018-02-18T17:57:24.404Z,28.10
2018-02-18T17:59:52.454Z,35.43
2018-02-18T18:02:20.504Z,36.03
2018-02-18T18:04:48.555Z,45.50
2018-02-18T18:07:16.617Z,33.43
2018-02-18T18:09:44.662Z,33.07
2018-02-18T18:12:12.709Z,32.90
2018-02-18T18:14:40.773Z,38.90
2018-02-18T18:17:08.837Z,33.23
2018-02-18T18:19:36.917Z,27.37
2018-02-18T18:22:05.731Z,31.93
2018-02-18T18:24:33.776Z,26.10
2018-02-18T18:27:01.858Z,27.30
2018-02-18T18:29:29.911Z,30.50
2018-02-18T18:31:57.973Z,28.10
2018-02-18T18:34:26.043Z,25.23
2018-02-18T18:36:54.094Z,28.23
2018-02-18T18:39:22.910Z,27.03
2018-02-18T18:41:51.731Z,30.03
2018-02-18T18:44:19.801Z,26.47
2018-02-18T18:46:47.859Z,25.73
2018-02-18T18:49:15.944Z,24.40
2018-02-18T18:51:44.059Z,24.37
2018-02-18T18:54:12.323Z,23.60
2018-02-18T18:56:40.375Z,27.87
2018-02-18T18:59:08.433Z,25.20
2018-02-18T19:01:36.496Z,25.53
2018-02-18T19:04:04.561Z,25.50
2018-02-18T19:06:33.422Z,29.03
2018-02-18T19:09:01.475Z,26.30
2018-02-18T19:11:29.538Z,24.13
2018-02-18T19:13:58.361Z,24.63
2018-02-18T19:16:26.505Z,25.90
2018-02-18T19:18:54.559Z,27.17
2018-02-18T19:21:22.621Z,30.50
2018-02-18T19:23:50.676Z,27.73
2018-02-18T19:26:18.959Z,29.73
2018-02-18T19:28:47.809Z,28.50
2018-02-18T19:31:15.871Z,36.00
2018-02-18T19:33:43.944Z,29.77
2018-02-18T19:36:12.016Z,94.60
2018-02-18T19:38:40.837Z,46.60
2018-02-18T19:41:08.896Z,62.37
2018-02-18T19:43:37.731Z,40.93
2018-02-18T19:46:05.789Z,31.50
2018-02-18T19:48:33.845Z,29.83
2018-02-18T19:51:01.900Z,41.70
2018-02-18T19:53:29.966Z,37.07
2018-02-18T19:55:58.802Z,35.23
2018-02-18T19:58:26.860Z,27.67
2018-02-18T20:00:54.902Z,25.03
2018-02-18T20:03:22.961Z,27.73
2018-02-18T20:05:51.016Z,26.03
2018-02-18T20:08:19.074Z,25.87
2018-02-18T20:10:47.152Z,24.70
2018-02-18T20:13:15.244Z,26.43
2018-02-18T20:15:43.262Z,27.73
2018-02-18T20:18:11.316Z,24.13
2018-02-18T20:20:39.374Z,26.63
2018-02-18T20:23:07.447Z,20.63
2018-02-18T20:25:36.457Z,22.70
2018-02-18T20:28:04.644Z,23.10
2018-02-18T20:30:32.694Z,18.90
2018-02-18T20:33:00.959Z,20.63
2018-02-18T20:35:29.015Z,20.67
2018-02-18T20:37:57.061Z,24.40
2018-02-18T20:40:25.900Z,22.43
2018-02-18T20:42:53.958Z,23.63
2018-02-18T20:45:22.794Z,23.10
2018-02-18T20:47:50.859Z,20.47
2018-02-18T20:50:18.952Z,19.90
2018-02-18T20:52:47.017Z,20.07
2018-02-18T20:55:15.081Z,20.77
2018-02-18T20:57:43.142Z,21.27
2018-02-18T21:00:11.201Z,21.13
2018-02-18T21:02:39.260Z,20.03
2018-02-18T21:05:07.312Z,18.90
2018-02-18T21:07:35.364Z,15.70
2018-02-18T21:10:03.500Z,21.60
2018-02-18T21:12:31.566Z,18.93
2018-02-18T21:15:00.384Z,17.00
2018-02-18T21:17:28.435Z,14.73
2018-02-18T21:19:56.494Z,15.07
2018-02-18T21:22:24.547Z,15.13
2018-02-18T21:24:52.616Z,13.87
2018-02-18T21:27:20.664Z,12.50
2018-02-18T21:29:48.732Z,12.93
2018-02-18T21:32:17.465Z,14.33
2018-02-18T21:34:45.500Z,14.83
2018-02-18T21:37:13.545Z,14.83
2018-02-18T21:39:41.677Z,12.10
2018-02-18T21:42:09.732Z,12.70
2018-02-18T21:44:38.483Z,22.67
2018-02-18T21:47:07.359Z,14.80
2018-02-18T21:49:35.388Z,13.63
2018-02-18T21:52:04.377Z,16.63
2018-02-18T21:54:32.424Z,16.70
2018-02-18T21:57:00.500Z,14.30
2018-02-18T21:59:28.723Z,15.80
2018-02-18T22:01:56.771Z,13.50
2018-02-18T22:04:25.069Z,15.57
2018-02-18T22:06:53.165Z,14.20
2018-02-18T22:09:21.177Z,14.80
2018-02-18T22:11:50.020Z,15.60
2018-02-18T22:14:18.078Z,15.43
2018-02-18T22:16:46.137Z,16.13
2018-02-18T22:19:14.241Z,16.87
2018-02-18T22:21:43.057Z,14.93
2018-02-18T22:24:11.182Z,17.17
2018-02-18T22:26:39.231Z,14.70
2018-02-18T22:29:07.320Z,12.67
2018-02-18T22:31:36.284Z,13.67
2018-02-18T22:34:05.114Z,13.53
2018-02-18T22:36:33.155Z,13.27
2018-02-18T22:39:01.212Z,14.70
2018-02-18T22:41:29.337Z,13.40
2018-02-18T22:43:58.204Z,14.57
2018-02-18T22:46:26.263Z,19.30
2018-02-18T22:48:54.334Z,14.37
2018-02-18T22:51:22.397Z,15.63
2018-02-18T22:53:51.218Z,16.63
2018-02-18T22:56:19.304Z,17.20
2018-02-18T22:58:47.354Z,15.47
2018-02-18T23:01:15.537Z,16.07
2018-02-18T23:03:44.511Z,15.70
2018-02-18T23:06:12.456Z,15.73
2018-02-18T23:08:40.499Z,15.67
2018-02-18T23:11:08.573Z,14.47
2018-02-18T23:13:36.618Z,14.87
2018-02-18T23:16:04.707Z,15.37
2018-02-18T23:18:32.783Z,16.03
2018-02-18T23:21:08.364Z,20.80
2018-02-18T23:23:36.411Z,17.20
2018-02-18T23:26:04.468Z,18.70
2018-02-18T23:28:33.299Z,15.30
2018-02-18T23:31:01.368Z,14.30
2018-02-18T23:33:30.201Z,14.57
2018-02-18T23:35:58.279Z,15.47
2018-02-18T23:38:26.355Z,17.43
2018-02-18T23:40:54.402Z,23.43
2018-02-18T23:43:22.752Z,23.00
2018-02-18T23:45:50.776Z,37.33
2018-02-18T23:48:18.956Z,26.97
2018-02-18T23:50:47.006Z,18.83
2018-02-18T23:53:15.582Z,20.03
2018-02-18T23:55:43.667Z,27.17
2018-02-18T23:58:11.732Z,25.03
